Time;durP1;ratioP1;P1;durP2;ratioP2;P2;SDS_P1;SDS_P2;PMS_P1;PMS_P2;Temp;Humidity;BMP_temperature;BMP_pressure;BME280_temperature;BME280_humidity;BME280_pressure;Samples;Min_cycle;Max_cycle;Signal;HPM_P1;HPM_P2
2021/05/12 00:00:00;;;;;;;2.60;2.10;;;;;;;11.11;92.61;98488.50;5071113;28;20114;-79
2021/05/12 00:02:27;;;;;;;3.45;2.20;;;;;;;11.11;92.36;98491.22;5103341;28;20047;-80
2021/05/12 00:04:53;;;;;;;4.75;1.88;;;;;;;11.10;92.49;98483.25;5090675;28;20105;-79
2021/05/12 00:07:20;;;;;;;2.63;1.80;;;;;;;11.08;92.75;98480.75;5105896;28;20495;-79
2021/05/12 00:09:46;;;;;;;2.85;2.05;;;;;;;11.10;92.81;98486.81;5114486;28;20044;-79
2021/05/12 00:12:13;;;;;;;2.65;2.45;;;;;;;11.11;92.50;98487.63;5109639;28;20101;-79
2021/05/12 00:14:39;;;;;;;3.72;2.67;;;;;;;11.12;92.34;98482.00;5095060;28;20048;-80
2021/05/12 00:17:05;;;;;;;4.18;3.17;;;;;;;11.08;92.07;98486.19;5095023;28;20043;-79
2021/05/12 00:19:34;;;;;;;3.85;3.22;;;;;;;11.12;92.82;98494.75;5100245;28;20059;-78
2021/05/12 00:22:13;;;;;;;5.30;3.40;;;;;;;11.13;92.73;98499.16;5074508;28;20051;-78
2021/05/12 00:24:40;;;;;;;5.07;3.42;;;;;;;11.11;92.47;98495.81;5112792;28;20130;-78
2021/05/12 00:27:07;;;;;;;4.10;3.55;;;;;;;11.05;92.94;98502.91;5115412;28;20051;-78
2021/05/12 00:29:34;;;;;;;4.97;4.22;;;;;;;11.05;93.11;98497.47;5099056;28;20055;-79
2021/05/12 00:32:00;;;;;;;7.55;4.28;;;;;;;11.14;92.50;98490.81;5094883;28;20059;-80
2021/05/12 00:34:27;;;;;;;7.50;4.85;;;;;;;11.11;92.43;98483.06;5094616;28;20522;-79
2021/05/12 00:36:53;;;;;;;8.43;4.13;;;;;;;11.08;92.54;98496.22;5094529;28;20411;-79
2021/05/12 00:39:19;;;;;;;6.45;4.68;;;;;;;11.01;93.03;98506.25;5096360;28;20052;-79
2021/05/12 00:41:47;;;;;;;8.43;5.05;;;;;;;11.05;92.67;98499.34;5115458;27;20047;-79
2021/05/12 00:44:18;;;;;;;6.65;4.80;;;;;;;11.07;92.82;98508.97;5114360;28;20055;-80
2021/05/12 00:46:45;;;;;;;6.05;4.20;;;;;;;10.92;92.94;98503.69;5097449;28;20146;-79
2021/05/12 00:49:11;;;;;;;7.25;5.55;;;;;;;10.96;93.34;98502.25;5094294;28;20484;-79
2021/05/12 00:51:37;;;;;;;7.80;5.60;;;;;;;10.92;93.33;98509.13;5099608;28;20059;-79
2021/05/12 00:54:05;;;;;;;7.75;5.30;;;;;;;10.86;93.58;98495.53;5114365;28;20051;-79
2021/05/12 00:56:37;;;;;;;8.20;5.60;;;;;;;10.93;92.95;98502.66;5105980;28;20056;-79
2021/05/12 00:59:04;;;;;;;8.43;5.28;;;;;;;10.96;92.52;98506.88;5094540;28;20467;-80
2021/05/12 01:01:31;;;;;;;6.53;5.10;;;;;;;10.94;93.03;98503.50;5101761;28;20047;-80
2021/05/12 01:03:57;;;;;;;7.28;5.50;;;;;;;10.92;92.45;98506.41;5114774;28;20439;-80
2021/05/12 01:06:27;;;;;;;5.40;4.05;;;;;;;10.88;92.47;98515.19;5110349;28;20131;-80
2021/05/12 01:08:53;;;;;;;;;;;;;;;10.87;93.01;98522.50;5094272;28;20055;-79
2021/05/12 01:11:20;;;;;;;7.05;4.30;;;;;;;10.88;92.65;98517.91;5094187;28;19924;-79
2021/05/12 01:13:47;;;;;;;10.25;5.20;;;;;;;10.79;92.82;98515.38;5109650;28;20047;-79
2021/05/12 01:16:15;;;;;;;5.72;4.40;;;;;;;10.84;92.42;98527.50;5114153;28;20060;-79
2021/05/12 01:18:41;;;;;;;5.85;3.75;;;;;;;10.72;92.67;98535.38;5112919;28;20096;-80
2021/05/12 01:21:10;;;;;;;4.43;3.13;;;;;;;10.64;92.83;98528.25;5098027;28;20063;-80
2021/05/12 01:23:39;;;;;;;3.83;3.10;;;;;;;10.59;92.56;98522.56;5097487;28;20476;-80
2021/05/12 01:26:08;;;;;;;7.40;3.63;;;;;;;10.75;92.45;98537.72;5113813;28;20437;-80
2021/05/12 01:28:37;;;;;;;4.95;2.55;;;;;;;10.58;92.30;98535.34;5114429;28;20047;-80
2021/05/12 01:31:05;;;;;;;5.55;3.35;;;;;;;10.57;92.33;98538.25;5095967;28;20433;-79
2021/05/12 01:33:32;;;;;;;4.97;3.40;;;;;;;10.57;92.39;98530.94;5093889;28;20044;-80
2021/05/12 01:36:00;;;;;;;5.47;3.33;;;;;;;10.54;91.91;98534.06;5103537;28;20423;-80
2021/05/12 01:38:29;;;;;;;3.33;3.00;;;;;;;10.54;91.79;98538.66;5114473;28;20512;-81
2021/05/12 01:40:56;;;;;;;4.57;3.43;;;;;;;10.43;92.45;98531.88;5107465;28;20048;-80
2021/05/12 01:43:23;;;;;;;8.25;3.45;;;;;;;10.43;91.94;98534.59;5093493;28;20048;-79
2021/05/12 01:45:50;;;;;;;7.13;3.50;;;;;;;10.30;92.39;98519.03;5093003;28;20060;-80
2021/05/12 01:48:17;;;;;;;8.40;3.08;;;;;;;10.40;92.12;98532.28;5113344;28;20089;-79
2021/05/12 01:50:44;;;;;;;4.15;2.92;;;;;;;10.42;91.75;98530.22;5094710;28;20055;-79
2021/05/12 01:53:11;;;;;;;6.35;3.25;;;;;;;10.16;91.92;98515.41;5108241;28;20079;-80
2021/05/12 01:55:39;;;;;;;3.88;2.97;;;;;;;10.35;91.83;98526.63;5109227;28;20151;-80
2021/05/12 01:58:06;;;;;;;5.20;3.00;;;;;;;10.31;92.21;98531.56;5087393;28;20040;-79
2021/05/12 02:00:39;;;;;;;6.28;3.58;;;;;;;10.19;92.72;98531.28;5092968;28;20059;-79
2021/05/12 02:03:07;;;;;;;3.33;2.85;;;;;;;10.12;92.09;98524.13;5104935;28;20499;-80
2021/05/12 02:05:35;;;;;;;3.50;3.13;;;;;;;10.28;92.18;98551.84;5112771;28;20094;-79
2021/05/12 02:08:03;;;;;;;2.45;2.20;;;;;;;10.14;91.98;98530.19;5106812;28;20063;-79
2021/05/12 02:10:29;;;;;;;6.57;2.90;;;;;;;10.13;91.91;98545.63;5109427;28;20052;-79
2021/05/12 02:12:57;;;;;;;4.50;3.30;;;;;;;10.14;92.20;98539.19;5094542;28;20044;-79
2021/05/12 02:15:23;;;;;;;4.70;3.10;;;;;;;10.08;92.13;98537.25;5112875;28;20051;-79
2021/05/12 02:17:50;;;;;;;6.72;3.85;;;;;;;10.12;92.26;98529.53;5112159;28;20051;-79
2021/05/12 02:20:18;;;;;;;5.13;3.72;;;;;;;10.16;92.43;98534.41;5113596;28;20407;-80
2021/05/12 02:22:45;;;;;;;5.93;3.70;;;;;;;10.18;92.05;98529.59;5112929;28;20047;-80
2021/05/12 02:25:11;;;;;;;3.90;3.50;;;;;;;10.01;91.39;98507.34;5097839;28;20044;-80
2021/05/12 02:27:38;;;;;;;4.57;3.92;;;;;;;10.04;91.33;98525.09;5092552;28;20094;-79
2021/05/12 02:30:08;;;;;;;8.52;4.18;;;;;;;10.08;91.47;98521.78;5101697;28;20044;-79
2021/05/12 02:32:34;;;;;;;8.73;5.05;;;;;;;10.09;91.59;98536.22;5091428;28;20074;-79
2021/05/12 02:35:00;;;;;;;9.10;4.68;;;;;;;10.15;91.25;98531.91;5087110;28;20050;-79
2021/05/12 02:37:27;;;;;;;13.18;3.97;;;;;;;10.05;90.86;98532.22;5112810;28;20043;-79
2021/05/12 02:39:54;;;;;;;6.05;4.53;;;;;;;10.13;91.26;98542.09;5112809;28;20054;-79
2021/05/12 02:42:21;;;;;;;5.80;4.43;;;;;;;10.11;91.33;98542.28;5093983;28;20052;-79
2021/05/12 02:44:47;;;;;;;6.88;5.18;;;;;;;10.03;90.95;98534.31;5091895;28;20066;-79
2021/05/12 02:47:14;;;;;;;6.00;4.55;;;;;;;10.10;90.38;98535.16;5108848;28;20043;-79
2021/05/12 02:49:41;;;;;;;8.90;4.90;;;;;;;10.03;90.77;98531.59;5112521;28;20054;-79
2021/05/12 02:52:07;;;;;;;6.43;4.55;;;;;;;10.05;91.27;98534.94;5102788;28;20407;-79
2021/05/12 02:54:34;;;;;;;8.48;5.00;;;;;;;10.04;91.00;98533.25;5111675;28;20050;-79
2021/05/12 02:57:00;;;;;;;9.13;4.60;;;;;;;10.06;90.53;98537.47;5112142;28;20435;-79
2021/05/12 02:59:27;;;;;;;6.40;4.65;;;;;;;10.02;90.93;98536.16;5112293;28;20051;-79
2021/05/12 03:01:53;;;;;;;7.82;5.30;;;;;;;10.12;91.24;98540.41;5109861;28;20487;-79
2021/05/12 03:04:20;;;;;;;5.38;4.88;;;;;;;10.08;90.75;98535.38;5091756;28;20318;-79
2021/05/12 03:06:47;;;;;;;6.75;4.97;;;;;;;10.04;90.62;98539.53;5091719;28;20176;-79
2021/05/12 03:09:13;;;;;;;10.43;5.18;;;;;;;10.04;91.00;98541.41;5092043;28;20102;-79
2021/05/12 03:11:40;;;;;;;7.95;5.10;;;;;;;10.03;90.35;98540.56;5091380;28;20412;-79
2021/05/12 03:14:08;;;;;;;6.53;4.57;;;;;;;10.05;90.41;98534.94;5102450;28;20051;-78
2021/05/12 03:16:34;;;;;;;8.52;5.18;;;;;;;10.06;90.92;98547.50;5112263;28;20407;-79
2021/05/12 03:19:01;;;;;;;9.40;4.78;;;;;;;10.02;90.75;98546.19;5107423;28;20047;-79
2021/05/12 03:21:29;;;;;;;8.82;5.35;;;;;;;10.00;90.65;98534.69;5092102;28;20074;-79
2021/05/12 03:23:55;;;;;;;5.45;4.68;;;;;;;10.03;90.57;98548.72;5091922;28;20147;-78
2021/05/12 03:26:21;;;;;;;9.20;4.68;;;;;;;9.86;90.32;98531.00;5085818;28;20048;-79
2021/05/12 03:28:48;;;;;;;10.57;4.53;;;;;;;9.91;90.64;98553.84;5071702;28;20048;-79
2021/05/12 03:31:14;;;;;;;10.45;5.53;;;;;;;10.04;90.79;98549.53;5097573;28;20044;-79
2021/05/12 03:33:41;;;;;;;11.15;5.47;;;;;;;10.04;90.87;98555.84;5112437;28;20096;-79
2021/05/12 03:36:08;;;;;;;9.88;5.82;;;;;;;10.08;90.36;98553.56;5102911;28;20117;-80
2021/05/12 03:38:35;;;;;;;9.38;6.47;;;;;;;10.06;90.46;98551.03;5090972;28;20064;-78
2021/05/12 03:41:02;;;;;;;11.32;6.88;;;;;;;10.07;90.80;98551.88;5091295;28;20059;-78
2021/05/12 03:43:29;;;;;;;9.25;6.05;;;;;;;9.99;90.71;98554.72;5094394;28;20083;-78
2021/05/12 03:45:55;;;;;;;10.15;6.72;;;;;;;9.98;90.46;98551.19;5095697;28;20083;-78
2021/05/12 03:48:21;;;;;;;7.85;6.32;;;;;;;9.92;90.70;98551.94;5110615;28;20092;-80
2021/05/12 03:50:47;;;;;;;10.75;6.35;;;;;;;9.92;91.26;98554.66;5116263;28;20108;-79
2021/05/12 03:53:13;;;;;;;12.85;7.20;;;;;;;9.98;91.03;98555.75;5106126;28;20052;-79
2021/05/12 03:55:41;;;;;;;7.65;5.93;;;;;;;9.93;90.74;98556.34;5095089;28;20089;-78
2021/05/12 03:58:08;;;;;;;11.23;6.93;;;;;;;9.94;90.57;98557.22;5099989;28;20455;-78
2021/05/12 04:00:35;;;;;;;9.77;6.97;;;;;;;9.86;90.90;98548.16;5116101;28;20399;-79
2021/05/12 04:03:02;;;;;;;11.75;7.55;;;;;;;9.88;91.18;98551.50;5112366;28;20040;-79
2021/05/12 04:05:28;;;;;;;12.02;7.57;;;;;;;9.95;91.22;98564.31;5095577;28;20419;-79
2021/05/12 04:07:54;;;;;;;11.10;7.80;;;;;;;9.96;91.02;98566.00;5095623;28;20040;-79
2021/05/12 04:10:21;;;;;;;13.15;7.18;;;;;;;9.95;90.94;98557.00;5114203;28;20122;-79
2021/05/12 04:12:49;;;;;;;11.40;8.18;;;;;;;9.84;91.13;98560.25;5095887;28;20060;-80
2021/05/12 04:15:15;;;;;;;12.98;8.10;;;;;;;9.95;90.86;98554.31;5093864;28;20048;-79
2021/05/12 04:17:42;;;;;;;11.70;8.20;;;;;;;9.94;91.56;98560.75;5115732;28;20414;-78
2021/05/12 04:20:12;;;;;;;16.60;8.32;;;;;;;9.92;91.00;98566.38;5108424;28;20413;-79
2021/05/12 04:22:39;;;;;;;13.38;8.20;;;;;;;9.88;90.91;98561.53;5097626;28;20048;-81
2021/05/12 04:25:07;;;;;;;16.25;7.97;;;;;;;9.88;90.39;98562.38;5096934;28;20400;-81
2021/05/12 04:27:33;;;;;;;16.50;9.25;;;;;;;9.96;90.71;98561.38;5095784;28;20044;-81
2021/05/12 04:30:00;;;;;;;13.20;7.90;;;;;;;10.00;90.90;98564.56;5080945;28;20106;-82
2021/05/12 04:32:26;;;;;;;13.75;7.95;;;;;;;9.95;90.79;98553.44;5107345;28;20534;-81
2021/05/12 04:34:52;;;;;;;12.13;8.85;;;;;;;9.96;90.46;98566.00;5114869;27;20407;-82
2021/05/12 04:37:19;;;;;;;13.02;8.32;;;;;;;9.95;90.99;98569.72;5106686;27;20048;-82
2021/05/12 04:39:45;;;;;;;12.43;8.60;;;;;;;9.95;90.80;98558.88;5094421;28;20040;-82
2021/05/12 04:42:11;;;;;;;17.77;8.55;;;;;;;9.95;91.20;98556.16;5094819;28;20052;-82
2021/05/12 04:44:37;;;;;;;13.85;8.32;;;;;;;10.00;90.72;98564.56;5094397;28;20052;-82
2021/05/12 04:47:04;;;;;;;14.38;8.52;;;;;;;10.02;90.70;98571.47;5094043;28;20055;-82
2021/05/12 04:49:31;;;;;;;14.77;8.77;;;;;;;9.98;91.26;98577.47;5112450;28;20530;-82
2021/05/12 04:51:58;;;;;;;16.60;9.13;;;;;;;9.89;90.69;98574.06;5114362;28;20536;-82
2021/05/12 04:54:25;;;;;;;10.70;7.22;;;;;;;9.84;91.26;98584.69;5098132;28;20052;-82
2021/05/12 04:56:51;;;;;;;15.95;8.43;;;;;;;9.98;91.51;98586.50;5094564;28;20044;-83
2021/05/12 04:59:17;;;;;;;12.68;8.00;;;;;;;10.04;91.41;98585.72;5102455;28;20044;-83
2021/05/12 05:01:44;;;;;;;15.23;8.90;;;;;;;10.05;91.14;98587.38;5113796;28;20051;-83
2021/05/12 05:04:12;;;;;;;12.27;8.15;;;;;;;10.05;91.21;98578.38;5097571;28;20514;-83
2021/05/12 05:06:39;;;;;;;17.10;8.35;;;;;;;10.04;91.05;98584.84;5114720;28;20090;-83
2021/05/12 05:09:06;;;;;;;14.80;8.02;;;;;;;9.88;90.63;98572.41;5113698;28;20048;-83
2021/05/12 05:11:33;;;;;;;11.52;7.38;;;;;;;9.84;91.05;98571.09;5097045;28;20052;-83
2021/05/12 05:13:59;;;;;;;16.38;8.27;;;;;;;9.91;91.53;98600.00;5093893;28;20040;-83
2021/05/12 05:19:57;;;;;;;12.93;7.18;;;;;;;9.86;90.61;98605.19;4964646;28;20502;-83
2021/05/12 05:22:25;;;;;;;12.75;7.47;;;;;;;9.78;90.60;98589.00;5084584;28;20055;-83
2021/05/12 05:24:52;;;;;;;13.90;7.38;;;;;;;9.97;90.35;98605.69;5114275;28;20075;-84
2021/05/12 05:27:18;;;;;;;11.88;6.55;;;;;;;9.92;90.56;98612.53;5109030;28;20047;-82
2021/05/12 05:29:45;;;;;;;12.93;7.50;;;;;;;10.04;90.57;98618.28;5093930;28;20098;-82
2021/05/12 05:32:12;;;;;;;15.07;6.43;;;;;;;9.92;89.98;98614.41;5094255;28;20044;-83
2021/05/12 05:35:18;;;;;;;11.90;7.10;;;;;;;9.91;90.45;98616.28;5108333;28;20325;-83
2021/05/12 05:38:05;;;;;;;16.75;7.18;;;;;;;9.82;91.45;98609.31;4992980;28;20050;-83
2021/05/12 05:40:45;;;;;;;10.30;6.65;;;;;;;9.91;90.90;98623.59;5042726;28;20052;-83
2021/05/12 05:43:13;;;;;;;10.68;6.10;;;;;;;9.95;90.98;98622.19;5076328;28;20048;-83
2021/05/12 05:45:41;;;;;;;9.07;4.97;;;;;;;9.79;90.48;98617.00;5113915;28;20048;-82
2021/05/12 05:48:12;;;;;;;9.45;5.35;;;;;;;9.82;90.33;98620.16;5114322;28;20567;-82
2021/05/12 05:50:45;;;;;;;10.25;5.60;;;;;;;9.76;91.03;98612.78;5099024;28;20105;-84
2021/05/12 05:53:11;;;;;;;14.15;5.78;;;;;;;9.85;90.24;98627.91;5094065;28;20055;-83
2021/05/12 05:55:41;;;;;;;10.85;6.03;;;;;;;9.77;90.94;98621.78;5106013;28;20572;-83
2021/05/12 05:58:07;;;;;;;13.77;6.57;;;;;;;9.73;90.44;98600.44;5114341;28;20047;-83
2021/05/12 06:00:33;;;;;;;7.30;5.35;;;;;;;9.78;90.62;98618.84;5105433;28;20044;-83
2021/05/12 06:03:01;;;;;;;10.32;5.05;;;;;;;9.93;90.58;98635.09;5103109;28;20054;-83
2021/05/12 06:05:28;;;;;;;12.25;4.90;;;;;;;9.89;89.75;98650.09;5113888;28;20051;-83
2021/05/12 06:07:55;;;;;;;7.70;5.25;;;;;;;9.90;90.22;98630.88;5094961;28;20059;-84
2021/05/12 06:10:22;;;;;;;8.93;5.05;;;;;;;9.98;90.14;98627.22;5092949;28;20522;-83
2021/05/12 06:12:58;;;;;;;11.70;4.90;;;;;;;9.91;89.45;98627.16;5092665;28;20059;-83
2021/05/12 06:15:29;;;;;;;7.53;4.70;;;;;;;9.85;88.85;98635.22;5092921;28;20446;-83
2021/05/12 06:18:07;;;;;;;7.70;4.75;;;;;;;9.81;88.87;98640.19;5077078;28;20048;-83
2021/05/12 06:20:39;;;;;;;8.32;4.13;;;;;;;9.80;89.24;98643.97;5072395;28;20052;-80
2021/05/12 06:23:07;;;;;;;12.35;5.30;;;;;;;9.72;88.66;98646.78;5072803;28;20055;-82
2021/05/12 06:25:44;;;;;;;6.15;4.47;;;;;;;9.83;88.40;98657.16;5072356;28;20056;-83
2021/05/12 06:28:11;;;;;;;10.02;5.57;;;;;;;9.79;89.23;98634.13;5072015;28;20048;-82
2021/05/12 06:30:37;;;;;;;6.90;4.28;;;;;;;9.83;89.42;98654.44;5072278;28;20064;-83
2021/05/12 06:35:54;;;;;;;7.30;4.32;;;;;;;9.77;88.95;98648.91;5072068;28;20488;-83
2021/05/12 06:38:22;;;;;;;6.28;3.83;;;;;;;9.69;87.92;98634.44;5072170;28;20044;-82
2021/05/12 06:40:48;;;;;;;10.15;4.90;;;;;;;9.84;89.33;98645.22;5071875;28;20470;-83
2021/05/12 06:43:16;;;;;;;7.90;4.20;;;;;;;9.87;88.22;98650.28;5071924;28;20412;-82
2021/05/12 06:45:43;;;;;;;8.35;4.18;;;;;;;9.94;88.03;98649.53;5072082;28;20045;-82
2021/05/12 06:48:09;;;;;;;7.93;4.60;;;;;;;9.87;88.77;98639.41;5072031;28;20075;-81
2021/05/12 06:50:36;;;;;;;13.00;5.35;;;;;;;9.97;89.01;98641.00;5071620;28;20173;-81
2021/05/12 06:53:02;;;;;;;7.07;4.25;;;;;;;9.96;87.72;98637.41;5072317;28;20052;-82
2021/05/12 06:55:31;;;;;;;11.57;4.85;;;;;;;9.91;88.15;98634.47;5078354;28;20435;-83
2021/05/12 06:58:03;;;;;;;11.30;4.47;;;;;;;9.87;87.74;98638.59;5092033;28;20098;-82
2021/05/12 07:00:32;;;;;;;9.70;5.20;;;;;;;9.94;88.12;98647.66;5092067;28;20059;-83
2021/05/12 07:03:03;;;;;;;10.50;4.35;;;;;;;10.03;88.45;98635.63;5091736;28;20056;-83
2021/05/12 07:05:30;;;;;;;6.43;4.28;;;;;;;10.12;87.66;98649.91;5091658;28;20055;-82
2021/05/12 07:07:56;;;;;;;8.00;5.30;;;;;;;10.11;86.65;98648.22;5083758;28;20052;-82
2021/05/12 07:10:22;;;;;;;9.35;4.57;;;;;;;9.94;87.78;98638.66;5071755;28;20052;-82
2021/05/12 07:12:50;;;;;;;9.20;4.57;;;;;;;10.10;87.71;98647.38;5071339;28;20056;-82
2021/05/12 07:15:16;;;;;;;8.05;4.20;;;;;;;9.98;87.21;98648.09;5071433;28;20056;-82
2021/05/12 07:17:42;;;;;;;7.00;3.85;;;;;;;10.02;86.99;98652.09;5071404;28;20494;-83
2021/05/12 07:20:14;;;;;;;9.85;3.95;;;;;;;10.03;86.74;98662.78;5071495;28;20048;-83
2021/05/12 07:22:42;;;;;;;6.45;4.35;;;;;;;10.04;87.23;98650.88;5071450;28;20554;-82
2021/05/12 07:25:13;;;;;;;11.05;4.43;;;;;;;10.18;86.72;98653.72;5071434;28;20055;-82
2021/05/12 07:27:40;;;;;;;9.45;4.15;;;;;;;10.12;86.82;98644.47;5071541;28;20545;-82
2021/05/12 07:30:08;;;;;;;11.95;4.95;;;;;;;10.15;86.34;98654.13;5098315;28;20051;-83
2021/05/12 07:32:35;;;;;;;8.02;4.38;;;;;;;10.06;86.30;98637.09;5112014;28;20068;-84
2021/05/12 07:35:16;;;;;;;5.65;4.05;;;;;;;10.00;85.97;98633.28;5099854;28;20044;-85
2021/05/12 07:37:47;;;;;;;7.20;4.40;;;;;;;10.05;87.14;98646.28;5071779;28;20053;-85
2021/05/12 07:40:23;;;;;;;8.63;4.40;;;;;;;9.85;87.31;98625.19;5097985;28;20074;-85
2021/05/12 07:42:51;;;;;;;11.18;4.63;;;;;;;10.01;87.27;98645.84;5104550;28;20052;-85
2021/05/12 07:45:19;;;;;;;10.60;3.80;;;;;;;10.01;86.53;98636.84;5091812;28;20127;-85
2021/05/12 07:47:45;;;;;;;8.30;4.55;;;;;;;10.07;87.18;98649.63;5091723;28;20064;-85
2021/05/12 07:50:20;;;;;;;9.10;4.20;;;;;;;9.97;86.99;98638.28;5099405;28;20102;-85
2021/05/12 07:53:03;;;;;;;9.93;4.65;;;;;;;9.91;86.72;98608.13;5112874;28;20134;-86
2021/05/12 07:55:29;;;;;;;6.10;3.95;;;;;;;9.97;86.19;98602.97;5112891;28;20084;-86
2021/05/12 07:57:56;;;;;;;8.57;4.38;;;;;;;10.11;86.34;98629.22;5111927;28;20090;-87
2021/05/12 08:00:27;;;;;;;8.43;4.00;;;;;;;10.22;86.52;98631.41;5102075;28;20052;-87
2021/05/12 08:02:57;;;;;;;8.85;5.30;;;;;;;10.13;86.87;98618.97;5091946;28;20542;-87
2021/05/12 08:05:26;;;;;;;11.40;4.50;;;;;;;10.14;86.55;98612.50;5097891;28;20052;-87
2021/05/12 08:07:57;;;;;;;8.95;4.45;;;;;;;10.26;85.86;98642.72;5111960;28;20054;-87
2021/05/12 08:10:25;;;;;;;8.45;4.30;;;;;;;10.34;86.29;98636.31;5111890;28;20052;-87
2021/05/12 08:12:55;;;;;;;5.63;3.63;;;;;;;10.35;85.19;98636.13;5111917;28;20043;-86
2021/05/12 08:18:30;;;;;;;10.10;3.75;;;;;;;10.14;85.88;98623.38;5050521;28;20420;-86
2021/05/12 08:21:32;;;;;;;;;;;;;;;;;;;;;
2021/05/12 08:24:15;;;;;;;6.78;3.92;;;;;;;10.00;85.51;98637.88;5071846;28;20493;-88
2021/05/12 08:30:00;;;;;;;;;;;;;;;10.04;86.37;98639.16;5106689;28;20055;-85
2021/05/12 08:32:35;;;;;;;11.52;4.20;;;;;;;9.99;86.49;98645.19;5103812;28;20396;-85
2021/05/12 08:35:05;;;;;;;6.60;3.67;;;;;;;9.91;85.84;98635.28;5115245;28;20093;-84
2021/05/12 08:37:31;;;;;;;5.93;3.38;;;;;;;9.95;86.01;98634.91;5109774;28;20442;-85
2021/05/12 08:40:29;;;;;;;7.47;3.15;;;;;;;10.04;85.65;98659.03;5095139;28;20097;-83
2021/05/12 08:42:57;;;;;;;7.22;3.55;;;;;;;9.95;85.70;98651.19;5096916;28;20074;-85
2021/05/12 08:45:26;;;;;;;7.97;3.40;;;;;;;9.90;86.11;98636.31;5115113;28;20055;-85
2021/05/12 08:47:56;;;;;;;8.77;3.38;;;;;;;10.09;85.88;98639.44;5115479;28;20055;-84
2021/05/12 08:50:23;;;;;;;8.32;4.13;;;;;;;9.94;86.75;98631.34;5078079;28;20048;-85
2021/05/12 08:52:50;;;;;;;3.92;3.38;;;;;;;9.99;86.25;98623.44;5074227;28;20526;-85
2021/05/12 08:55:17;;;;;;;5.28;3.28;;;;;;;10.03;85.95;98640.22;5097669;28;20048;-85
2021/05/12 08:57:44;;;;;;;6.13;3.65;;;;;;;10.05;85.78;98643.56;5115223;28;20388;-85
2021/05/12 09:00:11;;;;;;;5.90;2.83;;;;;;;10.01;85.60;98634.13;5113283;28;20048;-85
2021/05/12 09:02:38;;;;;;;11.57;3.78;;;;;;;9.90;85.87;98624.63;5113065;28;20047;-84
2021/05/12 09:05:15;;;;;;;11.48;3.10;;;;;;;10.00;86.18;98632.47;5115697;28;20086;-84
2021/05/12 09:07:55;;;;;;;4.72;3.30;;;;;;;10.00;86.59;98622.44;5093680;28;20551;-83
2021/05/12 09:10:23;;;;;;;7.55;3.60;;;;;;;10.10;85.49;98636.53;5074425;28;20488;-84
2021/05/12 09:12:55;;;;;;;8.63;3.75;;;;;;;10.18;85.54;98632.00;5086049;28;20055;-84
2021/05/12 09:15:24;;;;;;;9.88;3.20;;;;;;;10.08;85.33;98629.59;5094347;28;20430;-84
2021/05/12 09:17:59;;;;;;;7.57;3.10;;;;;;;10.10;85.02;98639.25;5096646;28;20052;-85
2021/05/12 09:20:39;;;;;;;8.77;3.38;;;;;;;10.03;85.74;98642.94;5113684;28;20414;-85
2021/05/12 09:23:19;;;;;;;8.80;3.33;;;;;;;10.04;85.71;98631.00;5115077;28;20066;-86
2021/05/12 09:26:00;;;;;;;5.57;3.20;;;;;;;9.98;84.67;98621.78;5083054;28;20049;-85
2021/05/12 09:28:29;;;;;;;8.98;4.22;;;;;;;10.06;85.36;98626.25;5074122;28;20401;-86
2021/05/12 09:31:17;;;;;;;11.02;4.28;;;;;;;9.96;85.41;98629.28;5109151;28;20059;-85
2021/05/12 09:34:11;;;;;;;8.23;3.53;;;;;;;9.94;84.83;98617.78;5102840;28;20056;-86
2021/05/12 09:36:44;;;;;;;6.03;3.60;;;;;;;10.05;86.40;98630.81;5087637;28;20472;-86
2021/05/12 09:39:16;;;;;;;10.00;3.88;;;;;;;10.01;84.78;98621.41;5101238;28;20039;-86
2021/05/12 09:41:46;;;;;;;6.10;3.42;;;;;;;10.17;84.74;98631.13;5114477;28;20122;-84
2021/05/12 09:44:46;;;;;;;11.32;3.85;;;;;;;10.18;84.76;98624.69;5107865;28;20104;-86
2021/05/12 09:47:29;;;;;;;9.20;3.83;;;;;;;10.16;84.21;98628.63;5074116;28;20105;-85
2021/05/12 09:50:06;;;;;;;;;;;;;;;;;;;;;
2021/05/12 09:52:58;;;;;;;;;;;;;;;;;;;;;
2021/05/12 09:55:52;;;;;;;6.55;3.25;;;;;;;10.44;84.20;98632.22;5104070;28;20044;-88
2021/05/12 09:58:23;;;;;;;6.82;3.97;;;;;;;10.35;84.11;98619.81;5093787;28;20062;-86
2021/05/12 10:00:53;;;;;;;6.10;3.80;;;;;;;10.47;84.87;98635.59;5105835;28;20097;-86
2021/05/12 10:03:25;;;;;;;5.47;3.85;;;;;;;10.43;84.44;98629.72;5093913;28;20060;-86
2021/05/12 10:05:56;;;;;;;12.23;3.58;;;;;;;10.43;84.14;98627.84;5099630;28;20081;-86
2021/05/12 10:08:30;;;;;;;4.82;2.92;;;;;;;10.41;83.98;98623.66;5114142;28;20043;-87
2021/05/12 10:11:10;;;;;;;9.52;2.95;;;;;;;10.53;84.01;98632.09;5114101;28;20064;-87
2021/05/12 10:13:40;;;;;;;7.00;3.10;;;;;;;10.45;84.25;98620.31;5113598;28;20055;-87
2021/05/12 10:16:12;;;;;;;5.60;3.42;;;;;;;10.62;83.06;98633.63;5113888;28;20051;-87
2021/05/12 10:18:39;;;;;;;6.30;3.15;;;;;;;10.73;82.90;98627.63;5096877;28;20044;-86
2021/05/12 10:21:09;;;;;;;5.85;3.30;;;;;;;10.67;83.56;98616.72;5072994;28;20461;-87
2021/05/12 10:23:37;;;;;;;6.22;2.90;;;;;;;10.66;82.60;98620.47;5102848;28;20052;-87
2021/05/12 10:26:07;;;;;;;9.75;3.78;;;;;;;10.80;82.91;98616.81;5113593;28;20087;-87
2021/05/12 10:28:45;;;;;;;4.78;2.90;;;;;;;10.93;81.76;98630.47;5106671;28;20487;-88
2021/05/12 10:31:14;;;;;;;5.47;2.88;;;;;;;11.04;81.50;98626.34;5093491;28;20051;-87
2021/05/12 10:33:53;;;;;;;7.78;3.65;;;;;;;11.12;82.34;98617.19;5093499;28;20048;-88
2021/05/12 10:36:20;;;;;;;5.55;3.05;;;;;;;11.08;80.14;98605.88;5092555;28;20066;-87
2021/05/12 10:39:05;;;;;;;8.25;3.55;;;;;;;11.21;80.51;98610.53;5093132;28;20071;-88
2021/05/12 10:41:49;;;;;;;6.85;3.78;;;;;;;11.33;78.20;98611.63;5093474;28;20059;-88
2021/05/12 10:44:36;;;;;;;7.00;3.17;;;;;;;11.24;78.88;98612.84;5093371;28;20082;-88
2021/05/12 10:47:09;;;;;;;5.60;3.70;;;;;;;11.50;79.54;98616.69;5113493;28;20043;-89
2021/05/12 10:49:37;;;;;;;5.57;3.72;;;;;;;11.45;78.88;98613.75;5113496;28;20075;-88
2021/05/12 10:52:08;;;;;;;7.18;3.55;;;;;;;11.25;77.54;98602.81;5097095;28;20097;-88
2021/05/12 10:54:43;;;;;;;8.45;3.92;;;;;;;11.24;78.22;98599.22;5092440;28;20507;-87
2021/05/12 10:57:11;;;;;;;4.43;3.72;;;;;;;11.51;78.63;98599.34;5094168;28;20056;-89
2021/05/12 10:59:52;;;;;;;6.68;4.13;;;;;;;11.80;77.21;98600.03;5092910;28;20048;-89
2021/05/12 11:02:19;;;;;;;9.05;3.80;;;;;;;11.74;77.69;98592.69;5105438;28;20048;-89
2021/05/12 11:05:00;;;;;;;8.32;4.18;;;;;;;11.74;77.18;98581.78;5113070;28;20054;-90
2021/05/12 11:07:35;;;;;;;6.13;3.72;;;;;;;11.75;77.03;98586.22;5105154;28;20468;-89
2021/05/12 11:10:03;;;;;;;4.78;3.28;;;;;;;11.76;78.25;98585.16;5093424;28;20063;-89
2021/05/12 11:12:43;;;;;;;10.77;3.85;;;;;;;11.85;77.31;98597.53;5099163;28;20486;-88
2021/05/12 11:15:12;;;;;;;;;;;;;;;11.55;76.81;98597.03;5114648;28;20592;-89
2021/05/12 11:17:48;;;;;;;8.65;3.88;;;;;;;11.72;77.29;98587.44;5112213;28;19950;-89
2021/05/12 11:20:22;;;;;;;8.55;3.92;;;;;;;11.84;77.28;98593.97;5093167;28;20124;-89
2021/05/12 11:22:52;;;;;;;6.18;3.63;;;;;;;11.67;78.67;98566.28;5092975;28;20067;-89
2021/05/12 11:33:19;;;;;;;;;;;;;;;;;;;;;
2021/05/12 11:38:57;;;;;;;4.90;3.72;;;;;;;12.50;74.38;98561.53;5094215;28;20412;-90
2021/05/12 11:41:33;;;;;;;6.43;4.22;;;;;;;12.66;72.63;98550.16;5102511;28;20557;-90
2021/05/12 11:44:02;;;;;;;10.75;5.20;;;;;;;12.93;72.69;98547.34;5099254;28;20048;-89
2021/05/12 11:46:40;;;;;;;8.00;3.72;;;;;;;13.13;71.97;98551.88;5082730;28;20108;-89
2021/05/12 11:49:11;;;;;;;7.82;4.22;;;;;;;13.24;70.29;98549.31;5092570;28;20040;-89
2021/05/12 11:51:40;;;;;;;9.13;4.28;;;;;;;13.49;72.16;98569.59;5093163;28;20055;-89
2021/05/12 11:54:16;;;;;;;6.25;4.60;;;;;;;13.48;70.70;98544.19;5095576;28;20106;-89
2021/05/12 11:56:46;;;;;;;15.18;5.25;;;;;;;13.26;71.33;98540.91;5093331;28;20048;-90
2021/05/12 12:02:32;;;;;;;9.00;4.20;;;;;;;13.13;70.55;98549.16;5101499;28;20047;-88
2021/05/12 12:05:15;;;;;;;;;;;;;;;;;;;;;
2021/05/12 12:07:42;;;;;;;5.82;3.80;;;;;;;13.32;70.07;98537.28;5109626;28;20531;-89
2021/05/12 12:10:14;;;;;;;10.77;4.80;;;;;;;13.53;69.36;98554.44;5095813;28;20476;-89
2021/05/12 12:13:01;;;;;;;8.18;4.38;;;;;;;13.63;70.27;98549.34;5099306;28;20105;-89
2021/05/12 12:15:27;;;;;;;6.57;4.55;;;;;;;13.58;68.45;98551.91;5117089;27;20051;-90
2021/05/12 12:17:56;;;;;;;8.32;4.65;;;;;;;13.56;69.09;98546.63;5117198;28;20051;-89
2021/05/12 12:20:32;;;;;;;7.50;3.58;;;;;;;13.60;67.83;98549.78;5097563;28;20054;-89